Time;durP1;ratioP1;P1;durP2;ratioP2;P2;SDS_P1;SDS_P2;PMS_P1;PMS_P2;Temp;Humidity;BMP_temperature;BMP_pressure;BME280_temperature;BME280_humidity;BME280_pressure;Samples;Min_cycle;Max_cycle;Signal;HPM_P1;HPM_P2
2021/09/13 00:01:36;;;;;;;9.55;7.00;;;;;;;13.97;79.39;99889.41;5050904;28;20029;-71
2021/09/13 00:04:01;;;;;;;11.10;7.25;;;;;;;13.93;78.93;99890.53;5051548;28;20041;-71
2021/09/13 00:06:27;;;;;;;12.27;8.23;;;;;;;13.90;79.04;99888.06;5050452;28;20032;-71
2021/09/13 00:08:52;;;;;;;9.48;6.63;;;;;;;13.87;79.32;99888.25;5049124;28;20116;-72
2021/09/13 00:11:17;;;;;;;10.95;6.93;;;;;;;13.86;79.33;99891.88;5047299;28;20037;-72
2021/09/13 00:13:43;;;;;;;16.48;12.57;;;;;;;13.84;79.56;99891.97;5047086;28;20056;-71
2021/09/13 00:16:08;;;;;;;33.30;25.42;;;;;;;13.80;79.67;99893.06;5047837;28;20691;-71
2021/09/13 00:18:33;;;;;;;13.43;9.23;;;;;;;13.75;79.32;99895.16;5047079;28;20037;-71
2021/09/13 00:20:59;;;;;;;11.18;7.40;;;;;;;13.71;79.64;99891.84;5048132;28;20558;-71
2021/09/13 00:23:25;;;;;;;8.77;7.20;;;;;;;13.68;79.57;99896.47;5045068;28;20037;-73
2021/09/13 00:25:50;;;;;;;10.13;7.85;;;;;;;13.66;79.21;99895.69;5047831;28;20071;-72
2021/09/13 00:28:15;;;;;;;10.07;8.20;;;;;;;13.57;79.64;99896.28;5048411;28;20037;-72
2021/09/13 00:30:41;;;;;;;13.98;7.80;;;;;;;13.57;79.82;99897.13;5047167;28;20037;-71
2021/09/13 00:33:06;;;;;;;11.02;8.38;;;;;;;13.54;79.68;99886.72;5047733;28;20032;-72
2021/09/13 00:35:32;;;;;;;9.82;7.93;;;;;;;13.49;79.83;99884.34;5048511;28;20037;-72
2021/09/13 00:37:57;;;;;;;14.77;8.13;;;;;;;13.45;79.60;99882.81;5048537;28;20067;-72
2021/09/13 00:40:23;;;;;;;12.93;7.80;;;;;;;13.43;80.04;99882.03;5048572;28;20037;-71
2021/09/13 00:42:49;;;;;;;14.00;9.13;;;;;;;13.42;80.02;99888.31;5047195;28;20124;-71
2021/09/13 00:45:14;;;;;;;9.18;7.65;;;;;;;13.41;80.38;99886.56;5048785;28;20586;-72
2021/09/13 00:47:40;;;;;;;9.82;8.05;;;;;;;13.38;80.29;99886.75;5047125;28;20049;-72
2021/09/13 00:50:06;;;;;;;11.45;9.50;;;;;;;13.40;80.76;99890.19;5049565;28;20033;-71
2021/09/13 00:52:32;;;;;;;17.00;10.40;;;;;;;13.35;80.14;99891.41;5046666;28;20569;-72
2021/09/13 00:54:59;;;;;;;14.07;10.85;;;;;;;13.34;79.98;99887.03;5048725;28;20071;-72
2021/09/13 00:57:26;;;;;;;17.65;9.18;;;;;;;13.29;80.11;99882.88;5048905;28;20037;-72
2021/09/13 00:59:51;;;;;;;11.27;9.00;;;;;;;13.26;79.69;99877.72;5050605;28;20037;-72
2021/09/13 01:02:17;;;;;;;10.48;8.90;;;;;;;13.25;80.47;99877.81;5024217;28;20550;-72
2021/09/13 01:04:42;;;;;;;13.30;8.15;;;;;;;13.26;80.40;99874.22;5051711;28;20060;-72
2021/09/13 01:07:08;;;;;;;9.27;8.00;;;;;;;13.27;80.35;99876.81;5068101;28;20097;-72
2021/09/13 01:09:34;;;;;;;20.52;8.93;;;;;;;13.32;79.97;99873.91;5064606;28;20509;-70
2021/09/13 01:11:59;;;;;;;15.90;8.90;;;;;;;13.32;79.53;99871.25;5059566;28;20547;-71
2021/09/13 01:14:42;;;;;;;10.65;7.82;;;;;;;13.31;79.58;99870.41;5063181;28;20108;-72
2021/09/13 01:17:08;;;;;;;11.82;8.98;;;;;;;13.29;79.58;99872.28;5062898;28;20048;-72
2021/09/13 01:19:34;;;;;;;11.43;9.27;;;;;;;13.22;80.09;99860.31;5051842;28;20063;-72
2021/09/13 01:22:01;;;;;;;12.20;10.18;;;;;;;13.18;80.04;99858.78;5045876;28;20680;-72
2021/09/13 01:24:31;;;;;;;12.38;9.27;;;;;;;13.18;79.95;99857.94;5046886;28;20422;-72
2021/09/13 01:27:05;;;;;;;14.23;10.48;;;;;;;13.18;80.31;99857.94;5032081;28;20095;-72
2021/09/13 01:29:30;;;;;;;16.70;10.55;;;;;;;13.22;80.13;99862.13;5031784;28;20047;-72
2021/09/13 01:31:56;;;;;;;13.55;8.57;;;;;;;13.28;80.02;99856.47;5031460;28;20407;-72
2021/09/13 01:34:22;;;;;;;13.90;10.95;;;;;;;13.22;79.62;99852.38;5032245;28;20049;-72
2021/09/13 01:36:47;;;;;;;12.85;10.10;;;;;;;13.21;79.55;99853.31;5030534;28;20487;-72
2021/09/13 01:39:13;;;;;;;14.88;11.60;;;;;;;13.18;80.43;99852.66;5032130;28;20042;-72
2021/09/13 01:41:38;;;;;;;14.48;10.18;;;;;;;13.16;79.95;99849.22;5030954;28;20545;-72
2021/09/13 01:44:04;;;;;;;11.80;9.68;;;;;;;13.16;80.66;99851.88;5031605;28;20033;-72
2021/09/13 01:46:30;;;;;;;13.35;9.23;;;;;;;13.15;80.00;99850.19;5031085;28;20033;-72
2021/09/13 01:48:55;;;;;;;14.55;9.27;;;;;;;13.15;80.26;99847.53;5031277;28;20095;-70
2021/09/13 01:51:21;;;;;;;14.68;9.80;;;;;;;13.14;80.14;99851.13;5029544;28;20033;-71
2021/09/13 01:53:47;;;;;;;12.82;9.93;;;;;;;13.14;80.46;99843.16;5030969;28;20057;-71
2021/09/13 01:56:13;;;;;;;11.13;9.40;;;;;;;13.13;80.55;99838.84;5031065;28;20033;-71
2021/09/13 01:58:39;;;;;;;16.10;11.32;;;;;;;13.15;80.36;99843.09;5045527;28;20029;-71
2021/09/13 02:01:04;;;;;;;12.85;9.13;;;;;;;13.14;79.96;99851.97;5030573;28;20043;-72
2021/09/13 02:03:29;;;;;;;14.13;11.10;;;;;;;13.14;80.42;99849.31;5031478;28;20088;-72
2021/09/13 02:05:55;;;;;;;14.43;10.38;;;;;;;13.12;79.81;99853.88;5031402;28;20410;-72
2021/09/13 02:08:20;;;;;;;13.73;10.88;;;;;;;13.09;80.19;99852.25;5031392;28;20037;-72
2021/09/13 02:10:46;;;;;;;12.13;10.13;;;;;;;13.11;80.71;99855.63;5031056;28;20033;-71
2021/09/13 02:13:11;;;;;;;13.57;9.68;;;;;;;13.15;79.94;99856.34;5030010;28;20038;-71
2021/09/13 02:15:36;;;;;;;13.25;10.73;;;;;;;13.16;79.90;99855.38;5029073;28;20471;-72
2021/09/13 02:18:02;;;;;;;15.82;11.93;;;;;;;13.19;80.17;99860.50;5029468;28;20033;-71
2021/09/13 02:20:27;;;;;;;17.63;11.60;;;;;;;13.21;80.22;99857.75;5030409;28;20449;-71
2021/09/13 02:22:52;;;;;;;15.45;11.05;;;;;;;13.21;80.28;99853.31;5028859;28;20061;-71
2021/09/13 02:25:19;;;;;;;14.45;10.93;;;;;;;13.21;80.13;99858.59;5029971;28;20072;-71
2021/09/13 02:27:44;;;;;;;17.42;10.65;;;;;;;13.19;79.88;99859.63;5030806;28;20174;-72
2021/09/13 02:30:10;;;;;;;14.05;11.85;;;;;;;13.16;80.08;99854.53;5030936;28;20037;-71
2021/09/13 02:32:35;;;;;;;13.63;11.10;;;;;;;13.13;80.23;99857.38;5030364;28;20045;-71
2021/09/13 02:35:04;;;;;;;16.48;11.15;;;;;;;13.12;79.33;99859.16;5030842;28;20037;-72
2021/09/13 02:37:32;;;;;;;15.77;10.27;;;;;;;13.08;79.10;99863.78;5029712;28;20029;-71
2021/09/13 02:39:57;;;;;;;13.68;10.45;;;;;;;13.00;79.15;99860.72;5032373;28;20068;-72
2021/09/13 02:42:22;;;;;;;13.05;10.18;;;;;;;12.98;79.75;99849.38;5043618;28;20041;-72
2021/09/13 02:44:48;;;;;;;14.65;12.18;;;;;;;12.96;79.99;99856.53;5050055;28;20052;-72
2021/09/13 02:47:13;;;;;;;13.35;10.50;;;;;;;12.98;79.80;99854.66;5050040;28;20041;-72
2021/09/13 02:49:38;;;;;;;14.73;10.90;;;;;;;12.99;79.07;99855.50;5050299;28;20036;-71
2021/09/13 02:52:04;;;;;;;13.15;10.45;;;;;;;12.97;79.47;99850.31;5048015;28;20037;-72
2021/09/13 02:54:29;;;;;;;13.18;10.10;;;;;;;12.95;79.62;99846.06;5048632;28;20029;-72
2021/09/13 02:56:55;;;;;;;12.68;10.73;;;;;;;12.94;79.42;99849.63;5049556;28;20045;-72
2021/09/13 02:59:20;;;;;;;12.55;10.50;;;;;;;12.91;79.44;99852.47;5049994;28;20036;-72
2021/09/13 03:01:45;;;;;;;13.90;9.65;;;;;;;12.84;79.66;99839.56;5047767;28;20029;-71
2021/09/13 03:04:10;;;;;;;16.88;10.18;;;;;;;12.83;79.67;99837.88;5049646;28;20239;-70
2021/09/13 03:06:36;;;;;;;12.00;10.60;;;;;;;12.81;79.19;99834.47;5049738;28;20132;-72
2021/09/13 03:09:01;;;;;;;12.27;10.98;;;;;;;12.79;79.82;99835.50;5049408;28;20162;-71
2021/09/13 03:11:27;;;;;;;13.13;10.65;;;;;;;12.77;79.43;99840.88;5047308;28;20025;-71
2021/09/13 03:13:52;;;;;;;14.35;10.95;;;;;;;12.73;79.57;99836.72;5049708;28;20041;-71
2021/09/13 03:16:17;;;;;;;13.02;9.20;;;;;;;12.71;79.60;99840.38;5049362;28;20037;-73
2021/09/13 03:18:43;;;;;;;14.13;11.45;;;;;;;12.66;80.05;99836.19;5049675;28;20501;-72
2021/09/13 03:21:08;;;;;;;13.02;10.02;;;;;;;12.65;79.84;99837.16;5047742;28;20505;-72
2021/09/13 03:23:34;;;;;;;14.10;10.85;;;;;;;12.66;80.11;99838.84;5050768;28;20124;-72
2021/09/13 03:25:59;;;;;;;15.52;12.30;;;;;;;12.63;80.02;99841.66;5048923;28;20037;-71
2021/09/13 03:28:24;;;;;;;18.75;12.63;;;;;;;12.59;80.71;99834.00;5049115;28;20511;-72
2021/09/13 03:30:51;;;;;;;14.73;12.68;;;;;;;12.57;80.35;99838.50;5049551;28;20045;-72
2021/09/13 03:33:16;;;;;;;12.38;10.98;;;;;;;12.53;80.41;99832.56;5048963;28;20037;-72
2021/09/13 03:35:42;;;;;;;14.68;10.65;;;;;;;12.56;80.07;99831.53;5049155;28;20036;-72
2021/09/13 03:38:07;;;;;;;25.25;13.55;;;;;;;12.54;80.33;99828.97;5049112;28;20106;-71
2021/09/13 03:40:32;;;;;;;16.65;12.38;;;;;;;12.53;80.49;99834.31;5048876;28;20036;-72
2021/09/13 03:42:58;;;;;;;16.35;12.27;;;;;;;12.51;80.31;99844.16;5047763;28;20045;-71
2021/09/13 03:45:23;;;;;;;22.20;14.32;;;;;;;12.51;80.73;99834.44;5047961;28;20025;-72
2021/09/13 03:47:49;;;;;;;17.40;13.20;;;;;;;12.50;80.39;99840.66;5047425;28;20113;-72
2021/09/13 03:50:14;;;;;;;18.60;14.27;;;;;;;12.52;80.47;99835.28;5030638;28;20478;-72
2021/09/13 03:52:39;;;;;;;17.35;13.85;;;;;;;12.49;80.46;99841.59;5048024;28;20056;-71
2021/09/13 03:55:05;;;;;;;19.15;13.18;;;;;;;12.46;79.87;99839.97;5048298;28;20517;-71
2021/09/13 03:57:31;;;;;;;14.48;12.07;;;;;;;12.44;80.93;99830.44;5048595;28;20044;-72
2021/09/13 03:59:56;;;;;;;20.73;15.30;;;;;;;12.43;80.40;99834.03;5048566;28;20502;-71
2021/09/13 04:02:22;;;;;;;20.83;14.77;;;;;;;12.40;80.68;99840.34;5048164;28;20055;-72
2021/09/13 04:04:49;;;;;;;16.85;12.35;;;;;;;12.43;80.64;99841.94;5048465;28;20491;-72
2021/09/13 04:07:21;;;;;;;16.58;13.13;;;;;;;12.43;80.45;99840.16;5048574;28;20105;-71
2021/09/13 04:10:21;;;;;;;15.52;13.25;;;;;;;12.42;80.65;99845.53;5048508;28;20037;-71
2021/09/13 04:12:38;;;;;;;20.77;13.23;;;;;;;12.41;80.74;99842.03;5045085;28;20037;-72
2021/09/13 04:15:03;;;;;;;16.95;12.77;;;;;;;12.41;80.42;99841.19;5046860;28;20037;-71
2021/09/13 04:17:29;;;;;;;18.25;14.38;;;;;;;12.43;80.57;99841.94;5046899;28;20025;-71
2021/09/13 04:19:54;;;;;;;14.35;11.80;;;;;;;12.44;81.03;99843.66;5048740;28;20047;-71
2021/09/13 04:22:20;;;;;;;17.27;11.73;;;;;;;12.44;80.88;99844.50;5047863;28;20441;-71
2021/09/13 04:24:45;;;;;;;23.40;14.80;;;;;;;12.45;80.38;99850.63;5047721;28;20045;-71
2021/09/13 04:27:10;;;;;;;20.77;16.52;;;;;;;12.43;80.68;99852.53;5048353;28;20051;-72
2021/09/13 04:29:36;;;;;;;19.52;16.92;;;;;;;12.41;81.27;99860.53;5048461;28;20037;-72
2021/09/13 04:32:01;;;;;;;21.85;16.58;;;;;;;12.42;80.94;99858.75;5047539;28;20037;-71
2021/09/13 04:34:27;;;;;;;23.05;17.73;;;;;;;12.38;81.11;99855.44;5043130;28;20490;-72
2021/09/13 04:36:52;;;;;;;19.25;14.20;;;;;;;12.39;81.30;99851.84;5028962;28;20502;-72
2021/09/13 04:39:17;;;;;;;26.08;15.63;;;;;;;12.43;81.67;99856.03;5027214;28;20173;-72
2021/09/13 04:41:43;;;;;;;21.08;17.05;;;;;;;12.48;80.81;99853.13;5026491;28;20034;-71
2021/09/13 04:44:08;;;;;;;21.13;15.95;;;;;;;12.48;80.36;99852.25;5028349;28;20046;-71
2021/09/13 04:46:33;;;;;;;23.10;18.17;;;;;;;12.47;80.52;99851.41;5010172;28;20041;-71
2021/09/13 04:49:02;;;;;;;22.40;16.45;;;;;;;12.44;80.31;99838.34;5029123;28;20056;-72
2021/09/13 04:51:28;;;;;;;25.58;17.83;;;;;;;12.44;80.72;99848.94;5027727;28;20029;-72
2021/09/13 04:53:53;;;;;;;28.52;19.08;;;;;;;12.46;80.34;99847.91;5028739;28;20398;-73
2021/09/13 04:56:18;;;;;;;21.67;15.68;;;;;;;12.46;80.66;99850.56;5028485;28;20487;-71
2021/09/13 04:58:44;;;;;;;26.65;18.98;;;;;;;12.48;80.20;99842.53;5011091;28;20041;-72
2021/09/13 05:01:09;;;;;;;26.80;18.20;;;;;;;12.43;80.41;99847.25;5027017;28;20518;-73
2021/09/13 05:03:35;;;;;;;28.45;19.55;;;;;;;12.45;81.13;99854.16;5026857;28;20454;-73
2021/09/13 05:06:02;;;;;;;31.15;21.08;;;;;;;12.47;80.30;99848.75;5028523;28;20041;-72
2021/09/13 05:08:27;;;;;;;32.22;23.02;;;;;;;12.49;81.50;99853.97;5029064;28;20037;-72
2021/09/13 05:10:52;;;;;;;37.83;26.33;;;;;;;12.50;81.74;99853.00;5028246;28;20064;-73
2021/09/13 05:13:18;;;;;;;41.28;26.20;;;;;;;12.53;81.36;99853.72;5037965;28;20136;-71
2021/09/13 05:15:43;;;;;;;39.47;24.67;;;;;;;12.52;80.90;99854.63;5048096;28;20029;-71
2021/09/13 05:18:08;;;;;;;43.55;28.05;;;;;;;12.58;81.72;99858.75;5046799;28;20463;-72
2021/09/13 05:20:34;;;;;;;55.28;31.77;;;;;;;12.64;81.76;99850.44;5048776;28;20040;-72
2021/09/13 05:22:59;;;;;;;93.10;36.38;;;;;;;12.75;82.75;99856.00;5050186;28;20088;-71
2021/09/13 05:25:24;;;;;;;75.93;38.83;;;;;;;12.88;83.13;99856.13;5057738;28;20033;-72
2021/09/13 05:27:51;;;;;;;116.85;49.17;;;;;;;12.93;83.67;99858.53;5051459;28;20037;-73
2021/09/13 05:30:16;;;;;;;114.63;48.20;;;;;;;12.98;84.43;99857.31;5049381;28;20095;-74
2021/09/13 05:32:42;;;;;;;105.40;46.03;;;;;;;13.07;84.84;99856.78;5048100;28;20033;-71
2021/09/13 05:35:08;;;;;;;158.95;58.65;;;;;;;13.11;83.85;99853.00;5048781;28;20124;-71
2021/09/13 05:37:33;;;;;;;97.45;44.15;;;;;;;13.17;84.61;99857.09;5049820;28;20120;-71
2021/09/13 05:39:58;;;;;;;141.85;54.17;;;;;;;13.26;84.63;99858.34;5031716;28;20140;-73
2021/09/13 05:42:25;;;;;;;145.85;54.05;;;;;;;13.28;84.62;99851.19;5047673;28;20115;-72
2021/09/13 05:44:50;;;;;;;121.70;52.63;;;;;;;13.30;84.73;99849.31;5048852;28;20124;-71
2021/09/13 05:47:16;;;;;;;143.65;54.63;;;;;;;13.34;84.69;99852.59;5047032;28;20579;-72
2021/09/13 05:49:41;;;;;;;97.32;44.92;;;;;;;13.37;84.62;99850.66;5048391;28;20037;-71
2021/09/13 05:52:06;;;;;;;114.90;47.05;;;;;;;13.36;84.66;99859.53;5048169;28;20041;-71
2021/09/13 05:54:32;;;;;;;85.72;40.50;;;;;;;13.40;84.31;99857.56;5051750;28;20085;-72
2021/09/13 05:56:57;;;;;;;56.53;34.05;;;;;;;13.39;84.33;99855.84;5049487;28;20379;-72
2021/09/13 05:59:25;;;;;;;129.88;45.35;;;;;;;13.34;84.04;99855.25;5051744;28;20207;-73
2021/09/13 06:01:51;;;;;;;131.57;43.20;;;;;;;13.28;83.86;99859.97;5050693;28;20119;-71
2021/09/13 06:04:19;;;;;;;87.53;41.25;;;;;;;13.31;84.75;99851.00;5050928;28;20048;-70
2021/09/13 06:06:45;;;;;;;104.82;41.13;;;;;;;13.34;84.39;99852.59;5050527;28;20127;-72
2021/09/13 06:09:11;;;;;;;192.02;58.78;;;;;;;13.37;83.70;99858.59;5049940;28;20116;-72
2021/09/13 06:11:37;;;;;;;78.25;40.75;;;;;;;13.40;83.96;99865.50;5050205;28;20033;-72
2021/09/13 06:14:02;;;;;;;112.57;44.08;;;;;;;13.41;84.08;99864.53;5051024;28;20044;-71
2021/09/13 06:16:27;;;;;;;106.68;45.47;;;;;;;13.43;84.02;99865.31;5050436;28;20435;-71
2021/09/13 06:18:53;;;;;;;90.38;38.63;;;;;;;13.46;84.28;99868.66;5050884;28;20182;-72
2021/09/13 06:21:19;;;;;;;59.80;33.65;;;;;;;13.48;83.83;99876.47;5049249;28;20033;-72
2021/09/13 06:23:45;;;;;;;69.22;39.20;;;;;;;13.49;83.48;99876.41;5049281;28;20540;-72
2021/09/13 06:26:14;;;;;;;82.53;41.60;;;;;;;13.57;83.75;99877.75;5048448;28;20040;-73
2021/09/13 06:28:40;;;;;;;94.53;46.38;;;;;;;13.56;83.55;99876.88;5050166;28;20095;-70
2021/09/13 06:31:05;;;;;;;66.03;36.83;;;;;;;13.60;83.22;99877.53;5049982;28;20033;-71
2021/09/13 06:33:32;;;;;;;80.72;43.63;;;;;;;13.62;83.03;99879.16;5050225;28;20409;-71
2021/09/13 06:35:58;;;;;;;119.60;46.60;;;;;;;13.69;83.36;99883.13;5049359;28;20125;-72
2021/09/13 06:38:23;;;;;;;83.97;42.67;;;;;;;13.75;83.45;99889.84;5050657;28;20060;-72
2021/09/13 06:40:48;;;;;;;75.72;38.75;;;;;;;13.77;82.56;99887.97;5048296;28;20029;-74
2021/09/13 06:43:15;;;;;;;76.07;41.85;;;;;;;13.78;82.63;99891.47;5049639;28;20059;-72
2021/09/13 06:45:42;;;;;;;74.38;42.38;;;;;;;13.83;82.84;99892.03;5050208;28;20036;-73
2021/09/13 06:48:09;;;;;;;68.90;41.15;;;;;;;13.91;82.86;99903.88;5050328;28;20112;-72
2021/09/13 06:50:36;;;;;;;71.28;41.42;;;;;;;14.02;83.24;99902.38;5049782;28;20071;-73
2021/09/13 06:53:01;;;;;;;79.63;45.67;;;;;;;14.14;82.64;99893.66;5047717;28;20090;-73
2021/09/13 06:55:27;;;;;;;84.13;43.47;;;;;;;14.24;81.99;99902.75;5050186;28;20032;-72
2021/09/13 06:57:52;;;;;;;93.20;47.03;;;;;;;14.30;81.92;99905.03;5050669;28;20052;-72
2021/09/13 07:00:19;;;;;;;92.75;46.50;;;;;;;14.39;81.52;99895.63;5048241;28;20437;-72
2021/09/13 07:02:45;;;;;;;84.38;46.13;;;;;;;14.50;81.48;99905.56;5046045;28;20473;-72
2021/09/13 07:05:11;;;;;;;98.75;52.42;;;;;;;14.57;80.61;99904.22;5047362;28;20041;-72
2021/09/13 07:07:37;;;;;;;85.90;46.58;;;;;;;14.57;81.17;99890.97;5047049;28;20045;-71
2021/09/13 07:10:05;;;;;;;71.90;44.28;;;;;;;14.61;80.58;99895.13;5048658;28;20036;-73
2021/09/13 07:12:31;;;;;;;65.35;41.30;;;;;;;14.66;80.70;99898.34;5045323;28;20037;-71
2021/09/13 07:14:57;;;;;;;73.22;45.10;;;;;;;14.69;80.42;99900.78;5047819;28;20763;-71
2021/09/13 07:17:22;;;;;;;80.05;45.90;;;;;;;14.71;80.40;99896.25;5047517;28;20029;-71
2021/09/13 07:19:48;;;;;;;76.03;43.70;;;;;;;14.71;80.49;99892.75;5047447;28;20055;-72
2021/09/13 07:22:14;;;;;;;65.93;38.65;;;;;;;14.79;80.38;99891.31;5045395;28;20045;-70
2021/09/13 07:24:42;;;;;;;78.30;47.80;;;;;;;14.88;80.25;99895.16;5046261;28;20131;-72
2021/09/13 07:27:07;;;;;;;75.28;44.92;;;;;;;14.94;80.09;99896.53;5048238;28;20033;-72
2021/09/13 07:29:32;;;;;;;70.93;42.67;;;;;;;15.01;80.06;99896.06;5045485;28;20048;-72
2021/09/13 07:32:00;;;;;;;77.40;43.00;;;;;;;15.12;79.68;99892.69;5046075;28;20520;-73
2021/09/13 07:34:26;;;;;;;66.25;42.25;;;;;;;15.24;79.15;99899.84;5048236;28;20033;-70
2021/09/13 07:36:52;;;;;;;65.93;41.20;;;;;;;15.40;78.77;99893.50;5048378;28;20445;-71
2021/09/13 07:39:17;;;;;;;56.22;36.88;;;;;;;15.56;78.38;99907.44;5047097;28;20049;-72
2021/09/13 07:41:43;;;;;;;63.00;39.15;;;;;;;15.69;77.74;99902.13;5048574;28;20037;-72
2021/09/13 07:44:08;;;;;;;57.95;38.08;;;;;;;15.80;77.29;99894.31;5049129;28;20513;-72
2021/09/13 07:46:33;;;;;;;51.50;33.22;;;;;;;15.95;77.62;99900.38;5047748;28;20033;-73
2021/09/13 07:48:59;;;;;;;44.55;31.33;;;;;;;16.13;77.15;99908.03;5031285;28;20060;-73
2021/09/13 07:51:24;;;;;;;59.10;37.53;;;;;;;16.19;75.07;99913.75;5046949;28;20041;-73
2021/09/13 07:53:50;;;;;;;41.00;29.73;;;;;;;16.15;76.33;99900.78;5048387;28;20037;-73
2021/09/13 07:56:15;;;;;;;54.72;36.25;;;;;;;16.24;75.20;99905.44;5046771;28;20054;-73
2021/09/13 07:58:41;;;;;;;58.35;40.58;;;;;;;16.06;75.57;99907.59;5044706;28;20071;-73
2021/09/13 08:01:06;;;;;;;49.17;35.35;;;;;;;16.08;75.68;99906.53;5026893;28;20029;-74
2021/09/13 08:03:31;;;;;;;52.25;34.45;;;;;;;16.30;74.99;99905.88;5043431;28;20033;-72
2021/09/13 08:05:57;;;;;;;49.17;34.65;;;;;;;16.44;74.92;99906.69;5045121;28;20116;-73
2021/09/13 08:08:22;;;;;;;56.85;34.78;;;;;;;16.62;73.56;99902.72;5046224;28;20107;-72
2021/09/13 08:10:47;;;;;;;57.47;35.67;;;;;;;16.80;73.17;99913.84;5047150;28;20120;-74
2021/09/13 08:13:13;;;;;;;46.53;36.63;;;;;;;16.83;72.65;99913.63;5045888;28;20426;-75
2021/09/13 08:15:38;;;;;;;49.05;32.50;;;;;;;16.92;72.94;99912.09;5047810;28;20078;-73
2021/09/13 08:18:03;;;;;;;51.53;33.58;;;;;;;17.13;72.28;99904.31;5060964;28;20060;-73
2021/09/13 09:07:28;;;;;;;39.53;29.10;;;;;;;19.85;63.98;99910.19;5033527;27;20510;-72
2021/09/13 09:10:23;;;;;;;26.50;23.40;;;;;;;20.78;63.03;99911.00;5039238;28;20099;-45
2021/09/13 09:13:12;;;;;;;56.00;34.90;;;;;;;21.87;59.08;99907.19;5067548;27;20032;-48
2021/09/13 09:15:52;;;;;;;132.98;50.50;;;;;;;22.57;56.68;99905.94;5079616;27;20047;-48
2021/09/13 09:18:17;;;;;;;105.03;48.50;;;;;;;22.89;54.31;99910.88;5058857;28;20117;-45
2021/09/13 09:20:43;;;;;;;74.50;42.05;;;;;;;23.33;54.59;99906.47;5057811;28;20528;-48
2021/09/13 09:23:08;;;;;;;39.78;27.80;;;;;;;23.76;53.49;99907.47;5058198;28;20052;-44
2021/09/13 09:25:36;;;;;;;30.95;24.67;;;;;;;24.15;50.35;99903.53;5058703;28;20905;-45
2021/09/13 09:28:11;;;;;;;37.75;23.67;;;;;;;24.44;50.02;99905.84;5059476;28;20041;-50
2021/09/13 09:30:47;;;;;;;33.80;23.27;;;;;;;24.63;49.09;99902.91;5059636;28;20116;-49
2021/09/13 09:33:22;;;;;;;25.95;18.55;;;;;;;24.97;49.45;99901.97;5058393;28;20044;-48
2021/09/13 09:35:58;;;;;;;33.83;23.65;;;;;;;25.06;47.89;99903.69;5059559;28;20049;-44
2021/09/13 09:38:38;;;;;;;26.92;23.02;;;;;;;25.34;47.95;99897.16;5059892;28;20090;-46
2021/09/13 09:41:05;;;;;;;28.38;21.02;;;;;;;25.71;47.05;99896.63;5059023;28;20044;-47
2021/09/13 09:43:55;;;;;;;30.13;22.92;;;;;;;26.02;45.47;99893.25;5078916;28;20036;-72
2021/09/13 09:46:21;;;;;;;37.03;24.23;;;;;;;25.66;46.38;99899.00;5079316;28;20059;-72
2021/09/13 09:48:46;;;;;;;25.63;22.42;;;;;;;25.76;46.22;99896.97;5078168;28;20028;-73
2021/09/13 09:51:49;;;;;;;30.27;24.55;;;;;;;25.98;45.58;99889.19;5077609;28;20032;-74
2021/09/13 09:54:21;;;;;;;29.30;24.20;;;;;;;25.80;45.33;99892.91;5077611;28;20035;-73
2021/09/13 09:56:57;;;;;;;29.67;26.50;;;;;;;25.31;46.76;99898.34;5080176;28;20056;-74
2021/09/13 09:59:23;;;;;;;29.70;24.15;;;;;;;25.42;47.04;99887.19;5078532;28;20583;-74
2021/09/13 10:01:51;;;;;;;30.88;25.30;;;;;;;25.59;45.95;99889.91;5078625;28;20127;-73
2021/09/13 10:04:24;;;;;;;30.88;26.95;;;;;;;25.62;46.21;99889.56;5076893;28;20583;-71
2021/09/13 10:06:56;;;;;;;31.85;24.05;;;;;;;25.28;46.78;99874.41;5077270;28;20032;-72
2021/09/13 10:09:22;;;;;;;28.50;22.05;;;;;;;25.47;45.56;99887.56;5079746;28;20048;-72
2021/09/13 10:11:51;;;;;;;27.25;21.13;;;;;;;25.90;44.93;99868.47;5079248;28;20037;-72
2021/09/13 10:14:20;;;;;;;27.27;23.70;;;;;;;26.02;44.99;99869.78;5078485;28;20049;-72
2021/09/13 10:16:46;;;;;;;27.15;23.73;;;;;;;25.82;45.59;99869.28;5058971;28;20563;-71
2021/09/13 10:19:12;;;;;;;33.35;29.75;;;;;;;25.42;46.54;99864.78;5045118;28;20501;-71
2021/09/13 10:21:39;;;;;;;30.40;25.35;;;;;;;25.63;45.73;99858.84;5044151;28;20044;-71
2021/09/13 10:24:28;;;;;;;24.92;20.70;;;;;;;26.23;44.99;99855.66;5043874;28;20037;-71
2021/09/13 10:26:56;;;;;;;28.70;20.00;;;;;;;26.63;43.27;99847.56;5043605;28;20680;-71
2021/09/13 10:29:26;;;;;;;29.38;21.70;;;;;;;25.96;44.42;99846.13;5043927;28;20289;-71
2021/09/13 10:31:51;;;;;;;29.20;21.58;;;;;;;25.92;44.94;99850.22;5045080;28;20110;-73
2021/09/13 10:34:22;;;;;;;26.73;18.57;;;;;;;25.24;46.61;99852.28;5043521;28;20044;-72
2021/09/13 10:37:15;;;;;;;25.67;20.85;;;;;;;25.13;46.94;99839.13;5045090;28;20332;-72
2021/09/13 10:39:48;;;;;;;28.08;18.67;;;;;;;24.45;48.69;99848.25;5045157;28;20037;-72
2021/09/13 10:42:32;;;;;;;28.58;20.95;;;;;;;23.67;47.78;99842.94;5041059;28;20041;-72
2021/09/13 10:45:05;;;;;;;26.50;19.50;;;;;;;23.72;47.83;99852.22;5024248;28;20038;-72
2021/09/13 10:47:31;;;;;;;26.50;17.65;;;;;;;24.07;48.74;99853.16;5009414;28;20125;-71
2021/09/13 10:50:12;;;;;;;27.63;20.60;;;;;;;23.94;50.32;99853.56;5003750;28;20613;-73
2021/09/13 10:52:39;;;;;;;31.60;23.50;;;;;;;23.86;50.29;99850.84;5004992;28;20042;-73
2021/09/13 10:55:07;;;;;;;34.38;23.65;;;;;;;23.53;51.09;99844.38;5005170;28;20045;-73
2021/09/13 10:57:51;;;;;;;28.60;24.45;;;;;;;23.31;51.73;99846.56;5005668;28;20127;-70
2021/09/13 11:00:39;;;;;;;22.20;19.25;;;;;;;23.28;49.35;99835.25;5005964;28;20044;-71
2021/09/13 11:03:31;;;;;;;27.50;20.48;;;;;;;23.39;50.47;99842.25;5010418;28;20038;-70
2021/09/13 11:06:05;;;;;;;35.58;22.95;;;;;;;23.21;50.82;99834.19;5005718;28;20046;-71
2021/09/13 11:08:31;;;;;;;30.23;23.73;;;;;;;22.94;51.54;99833.28;5006125;28;20040;-70
2021/09/13 11:10:58;;;;;;;29.50;24.25;;;;;;;22.92;52.29;99832.59;5009711;28;20057;-72
2021/09/13 11:13:23;;;;;;;28.88;22.27;;;;;;;22.96;50.22;99831.25;5025812;28;20042;-73
2021/09/13 11:15:50;;;;;;;30.08;26.27;;;;;;;22.53;52.40;99830.19;5023652;28;20048;-72
2021/09/13 11:18:34;;;;;;;32.55;29.20;;;;;;;22.02;53.94;99826.19;5024781;28;20494;-71
2021/09/13 11:21:20;;;;;;;36.80;30.42;;;;;;;21.85;55.24;99819.75;5023658;28;20044;-73
2021/09/13 11:23:47;;;;;;;37.55;28.00;;;;;;;22.01;54.63;99821.81;5063088;28;20118;-73
2021/09/13 11:26:16;;;;;;;36.30;29.17;;;;;;;22.11;54.79;99816.41;5064396;28;20037;-72
2021/09/13 11:29:14;;;;;;;37.33;27.23;;;;;;;22.17;54.43;99818.47;5062953;28;20033;-72
2021/09/13 11:31:53;;;;;;;39.33;28.40;;;;;;;21.83;54.08;99821.72;5062892;28;20775;-72
2021/09/13 11:34:21;;;;;;;31.10;27.25;;;;;;;21.91;55.04;99819.19;5063736;28;20043;-72
2021/09/13 11:37:14;;;;;;;43.50;33.83;;;;;;;21.58;55.18;99815.19;5062876;28;20123;-72
2021/09/13 11:40:02;;;;;;;33.53;28.83;;;;;;;21.54;55.51;99821.84;5064089;28;20143;-71
2021/09/13 11:42:33;;;;;;;35.70;25.75;;;;;;;21.70;54.99;99813.16;5063708;28;20047;-72
2021/09/13 11:45:15;;;;;;;31.65;28.23;;;;;;;21.90;54.09;99814.78;5063769;28;20044;-73
2021/09/13 11:47:41;;;;;;;36.63;25.40;;;;;;;22.19;53.87;99817.34;5062988;28;20115;-73
2021/09/13 11:50:08;;;;;;;39.17;27.55;;;;;;;22.33;53.42;99810.66;5064049;28;20128;-72
2021/09/13 11:52:40;;;;;;;36.40;26.50;;;;;;;22.31;53.17;99812.66;5051318;28;20138;-73
2021/09/13 11:55:09;;;;;;;35.55;25.88;;;;;;;22.36;52.95;99807.66;5040673;28;20508;-73
2021/09/13 11:57:55;;;;;;;34.60;27.58;;;;;;;22.37;52.10;99811.19;5040192;28;20044;-73
2021/09/13 12:00:27;;;;;;;43.13;22.98;;;;;;;22.48;51.08;99808.31;5037569;28;20127;-74
2021/09/13 12:02:56;;;;;;;33.65;27.65;;;;;;;22.40;51.29;99802.84;5033042;28;20068;-73
2021/09/13 12:05:30;;;;;;;30.65;24.50;;;;;;;22.41;52.08;99799.16;5043610;28;20162;-72
2021/09/13 12:07:58;;;;;;;28.65;23.10;;;;;;;22.51;51.05;99806.13;5043232;28;20120;-74